Time,TemperatureF,DewpointF,PressureIn,WindDirection,WindDirectionDegrees,WindSpeedMPH,WindSpeedGustMPH,Humidity,HourlyPrecipIn,Conditions,Clouds,dailyrainin,SoftwareType,DateUTC
2013-01-27 00:00:00,17.5,13.5,30.44,West,262,3.0,4.0,84,0.00,,,0.05,Wunderground v.1.15,2013-01-27 05:00:00,
2013-01-27 00:05:00,17.8,13.5,30.44,WSW,243,3.0,4.0,83,0.00,,,0.05,Wunderground v.1.15,2013-01-27 05:05:00,
2013-01-27 00:10:00,18.1,14.1,30.44,West,269,3.0,5.0,84,0.00,,,0.05,Wunderground v.1.15,2013-01-27 05:10:00,
2013-01-27 00:15:00,18.4,14.1,30.44,SW,234,4.0,5.0,83,0.00,,,0.05,Wunderground v.1.15,2013-01-27 05:15:00,
2013-01-27 00:20:00,18.6,14.6,30.44,West,263,4.0,4.0,84,0.00,,,0.05,Wunderground v.1.15,2013-01-27 05:20:00,
2013-01-27 00:25:00,18.6,14.6,30.44,WSW,239,3.0,4.0,84,0.00,,,0.05,Wunderground v.1.15,2013-01-27 05:25:00,
2013-01-27 00:30:00,18.6,14.6,30.45,SW,228,4.0,4.0,84,0.00,,,0.05,Wunderground v.1.15,2013-01-27 05:30:00,
2013-01-27 00:35:00,18.6,14.6,30.45,SW,230,3.0,7.0,84,0.00,,,0.05,Wunderground v.1.15,2013-01-27 05:35:00,
2013-01-27 00:45:00,18.8,14.8,30.45,SW,215,3.0,5.0,84,0.00,,,0.05,Wunderground v.1.15,2013-01-27 05:45:00,
2013-01-27 00:50:00,18.8,14.8,30.45,SSW,210,4.0,4.0,84,0.00,,,0.05,Wunderground v.1.15,2013-01-27 05:50:00,
2013-01-27 00:55:00,18.9,14.9,30.45,SW,227,4.0,5.0,84,0.00,,,0.05,Wunderground v.1.15,2013-01-27 05:55:00,
2013-01-27 01:00:00,19.0,15.0,30.46,SW,236,4.0,4.0,84,0.00,,,0.05,Wunderground v.1.15,2013-01-27 06:00:00,
2013-01-27 01:10:00,19.1,15.3,30.46,SW,233,4.0,4.0,85,0.00,,,0.05,Wunderground v.1.15,2013-01-27 06:10:00,
2013-01-27 01:15:00,19.1,15.3,30.46,WSW,258,3.0,4.0,85,0.00,,,0.05,Wunderground v.1.15,2013-01-27 06:15:00,
2013-01-27 01:20:00,19.1,15.6,30.46,WSW,257,3.0,4.0,86,0.00,,,0.05,Wunderground v.1.15,2013-01-27 06:20:00,
2013-01-27 01:25:00,19.3,15.8,30.46,West,263,3.0,4.0,86,0.00,,,0.05,Wunderground v.1.15,2013-01-27 06:25:00,
2013-01-27 01:30:00,19.3,15.8,30.46,SW,234,3.0,5.0,86,0.00,,,0.05,Wunderground v.1.15,2013-01-27 06:30:00,
2013-01-27 01:35:00,19.4,15.9,30.46,SW,231,3.0,5.0,86,0.00,,,0.00,Wunderground v.1.15,2013-01-27 06:35:00,
2013-01-27 01:45:00,19.5,16.0,30.47,West,265,3.0,4.0,86,0.00,,,0.00,Wunderground v.1.15,2013-01-27 06:45:00,
2013-01-27 01:50:00,19.6,16.1,30.47,West,259,3.0,3.0,86,0.00,,,0.00,Wunderground v.1.15,2013-01-27 06:50:00,
2013-01-27 01:55:00,19.7,16.2,30.47,WSW,247,3.0,4.0,86,0.00,,,0.00,Wunderground v.1.15,2013-01-27 06:55:00,
2013-01-27 02:00:00,19.7,16.2,30.47,WSW,253,2.0,2.0,86,0.00,,,0.00,Wunderground v.1.15,2013-01-27 07:00:00,
2013-01-27 02:05:00,19.8,16.3,30.48,SW,230,2.0,4.0,86,0.00,,,0.00,Wunderground v.1.15,2013-01-27 07:05:00,
2013-01-27 02:15:00,19.8,16.3,30.47,SW,228,4.0,4.0,86,0.00,,,0.00,Wunderground v.1.15,2013-01-27 07:15:00,
2013-01-27 02:25:00,19.7,16.2,30.48,SW,216,3.0,4.0,86,0.00,,,0.00,Wunderground v.1.15,2013-01-27 07:25:00,
2013-01-27 02:30:00,19.6,16.4,30.48,WSW,250,3.0,4.0,87,0.00,,,0.00,Wunderground v.1.15,2013-01-27 07:30:00,
2013-01-27 02:35:00,19.5,16.3,30.48,SW,228,4.0,4.0,87,0.00,,,0.00,Wunderground v.1.15,2013-01-27 07:35:00,
2013-01-27 02:40:00,19.4,16.2,30.48,SW,225,4.0,4.0,87,0.00,,,0.00,Wunderground v.1.15,2013-01-27 07:40:00,
2013-01-27 02:45:00,19.4,16.2,30.48,SW,233,3.0,4.0,87,0.00,,,0.00,Wunderground v.1.15,2013-01-27 07:45:00,
2013-01-27 02:50:00,19.3,16.1,30.48,WSW,237,3.0,4.0,87,0.00,,,0.00,Wunderground v.1.15,2013-01-27 07:50:00,
2013-01-27 03:00:00,19.1,15.9,30.48,WSW,247,3.0,3.0,87,0.00,,,0.00,Wunderground v.1.15,2013-01-27 08:00:00,
2013-01-27 03:05:00,19.0,16.0,30.48,SW,227,2.0,5.0,88,0.00,,,0.00,Wunderground v.1.15,2013-01-27 08:05:00,
2013-01-27 03:10:00,18.9,15.9,30.48,SSW,198,2.0,5.0,88,0.00,,,0.00,Wunderground v.1.15,2013-01-27 08:10:00,
2013-01-27 03:15:00,18.9,15.9,30.48,WSW,238,3.0,5.0,88,0.00,,,0.00,Wunderground v.1.15,2013-01-27 08:15:00,
2013-01-27 03:20:00,19.0,16.0,30.48,WSW,244,3.0,5.0,88,0.00,,,0.00,Wunderground v.1.15,2013-01-27 08:20:00,
2013-01-27 03:25:00,19.1,16.1,30.48,SW,229,3.0,5.0,88,0.00,,,0.00,Wunderground v.1.15,2013-01-27 08:25:00,
2013-01-27 03:30:00,19.2,16.2,30.48,West,263,3.0,3.0,88,0.00,,,0.00,Wunderground v.1.15,2013-01-27 08:30:00,
2013-01-27 03:40:00,19.1,16.1,30.49,West,263,1.0,4.0,88,0.00,,,0.00,Wunderground v.1.15,2013-01-27 08:40:00,
2013-01-27 03:45:00,19.2,16.5,30.49,West,263,1.0,4.0,89,0.00,,,0.00,Wunderground v.1.15,2013-01-27 08:45:00,
2013-01-27 03:50:00,19.4,16.7,30.49,West,276,2.0,4.0,89,0.00,,,0.00,Wunderground v.1.15,2013-01-27 08:50:00,
2013-01-27 03:55:00,19.6,16.9,30.49,West,259,3.0,4.0,89,0.00,,,0.00,Wunderground v.1.15,2013-01-27 08:55:00,
2013-01-27 04:00:00,19.8,17.1,30.49,WSW,256,3.0,4.0,89,0.00,,,0.00,Wunderground v.1.15,2013-01-27 09:00:00,
2013-01-27 04:05:00,19.7,17.0,30.49,WNW,284,4.0,4.0,89,0.00,,,0.00,Wunderground v.1.15,2013-01-27 09:05:00,
2013-01-27 04:15:00,19.7,17.0,30.49,West,277,3.0,4.0,89,0.00,,,0.00,Wunderground v.1.15,2013-01-27 09:15:00,
2013-01-27 04:20:00,19.8,17.1,30.49,West,276,3.0,4.0,89,0.00,,,0.00,Wunderground v.1.15,2013-01-27 09:20:00,
2013-01-27 04:25:00,19.9,17.2,30.49,West,269,3.0,4.0,89,0.00,,,0.00,Wunderground v.1.15,2013-01-27 09:25:00,
2013-01-27 04:35:00,20.0,17.3,30.49,West,266,4.0,4.0,89,0.00,,,0.00,Wunderground v.1.15,2013-01-27 09:35:00,
2013-01-27 04:40:00,20.0,17.5,30.49,West,266,3.0,4.0,90,0.00,,,0.00,Wunderground v.1.15,2013-01-27 09:40:00,
2013-01-27 04:45:00,20.0,17.5,30.50,West,266,3.0,4.0,90,0.00,,,0.00,Wunderground v.1.15,2013-01-27 09:45:00,
2013-01-27 04:55:00,20.1,17.4,30.50,WNW,282,3.0,4.0,89,0.00,,,0.00,Wunderground v.1.15,2013-01-27 09:55:00,
2013-01-27 05:00:00,20.1,17.4,30.50,WNW,296,3.0,3.0,89,0.00,,,0.00,Wunderground v.1.15,2013-01-27 10:00:00,
2013-01-27 05:05:00,20.1,17.4,30.50,WNW,296,2.0,4.0,89,0.00,,,0.00,Wunderground v.1.15,2013-01-27 10:05:00,
2013-01-27 05:10:00,20.1,17.4,30.50,WNW,285,1.0,4.0,89,0.00,,,0.00,Wunderground v.1.15,2013-01-27 10:10:00,
2013-01-27 05:15:00,20.1,17.4,30.50,WNW,285,2.0,4.0,89,0.00,,,0.00,Wunderground v.1.15,2013-01-27 10:15:00,
2013-01-27 05:20:00,20.0,17.3,30.50,WNW,292,2.0,4.0,89,0.00,,,0.00,Wunderground v.1.15,2013-01-27 10:20:00,
2013-01-27 05:25:00,19.9,17.2,30.50,WNW,292,1.0,4.0,89,0.00,,,0.00,Wunderground v.1.15,2013-01-27 10:25:00,
2013-01-27 05:35:00,19.5,16.8,30.50,WNW,296,2.0,4.0,89,0.00,,,0.00,Wunderground v.1.15,2013-01-27 10:35:00,
2013-01-27 05:40:00,19.4,16.7,30.51,WNW,290,2.0,2.0,89,0.00,,,0.00,Wunderground v.1.15,2013-01-27 10:40:00,
2013-01-27 05:45:00,19.2,16.5,30.50,WNW,290,1.0,4.0,89,0.00,,,0.00,Wunderground v.1.15,2013-01-27 10:45:00,
2013-01-27 05:50:00,19.1,16.7,30.50,WNW,290,1.0,4.0,90,0.00,,,0.00,Wunderground v.1.15,2013-01-27 10:50:00,
2013-01-27 05:55:00,19.1,16.7,30.51,WNW,290,1.0,4.0,90,0.00,,,0.00,Wunderground v.1.15,2013-01-27 10:55:00,
2013-01-27 06:00:00,19.0,16.6,30.51,West,276,2.0,2.0,90,0.00,,,0.00,Wunderground v.1.15,2013-01-27 11:00:00,
2013-01-27 06:10:00,19.0,16.6,30.51,West,267,3.0,4.0,90,0.00,,,0.00,Wunderground v.1.15,2013-01-27 11:10:00,
2013-01-27 06:15:00,18.9,16.5,30.51,West,271,3.0,4.0,90,0.00,,,0.00,Wunderground v.1.15,2013-01-27 11:15:00,
2013-01-27 06:20:00,18.9,16.7,30.51,West,275,2.0,2.0,91,0.00,,,0.00,Wunderground v.1.15,2013-01-27 11:20:00,
2013-01-27 06:25:00,18.9,16.7,30.51,WNW,290,1.0,4.0,91,0.00,,,0.00,Wunderground v.1.15,2013-01-27 11:25:00,
2013-01-27 06:30:00,19.0,16.8,30.51,WNW,290,1.0,1.0,91,0.00,,,0.00,Wunderground v.1.15,2013-01-27 11:30:00,
2013-01-27 06:35:00,19.0,16.8,30.51,WNW,294,1.0,4.0,91,0.00,,,0.00,Wunderground v.1.15,2013-01-27 11:35:00,
2013-01-27 06:40:00,19.0,16.8,30.52,WNW,294,1.0,4.0,91,0.00,,,0.00,Wunderground v.1.15,2013-01-27 11:40:00,
2013-01-27 06:50:00,19.0,16.8,30.52,NW,306,2.0,2.0,91,0.00,,,0.00,Wunderground v.1.15,2013-01-27 11:50:00,
2013-01-27 06:55:00,19.0,16.8,30.53,WNW,293,2.0,4.0,91,0.00,,,0.00,Wunderground v.1.15,2013-01-27 11:55:00,
2013-01-27 07:00:00,19.0,16.8,30.53,WNW,296,2.0,4.0,91,0.00,,,0.00,Wunderground v.1.15,2013-01-27 12:00:00,
2013-01-27 07:05:00,19.0,16.8,30.53,WNW,297,1.0,4.0,91,0.00,,,0.00,Wunderground v.1.15,2013-01-27 12:05:00,
2013-01-27 07:10:00,19.0,16.8,30.53,WNW,297,1.0,4.0,91,0.00,,,0.00,Wunderground v.1.15,2013-01-27 12:10:00,
2013-01-27 07:15:00,19.1,16.7,30.53,WNW,297,0.0,4.0,90,0.00,,,0.00,Wunderground v.1.15,2013-01-27 12:15:00,
2013-01-27 07:20:00,19.1,16.7,30.53,WNW,297,0.0,4.0,90,0.00,,,0.00,Wunderground v.1.15,2013-01-27 12:20:00,
2013-01-27 07:25:00,19.1,16.7,30.53,WNW,291,1.0,4.0,90,0.00,,,0.00,Wunderground v.1.15,2013-01-27 12:25:00,
2013-01-27 07:35:00,19.1,16.7,30.54,WNW,291,1.0,4.0,90,0.00,,,0.00,Wunderground v.1.15,2013-01-27 12:35:00,
2013-01-27 07:40:00,19.1,16.9,30.54,West,278,1.0,1.0,91,0.00,,,0.00,Wunderground v.1.15,2013-01-27 12:40:00,
2013-01-27 07:45:00,19.0,16.6,30.54,West,278,1.0,4.0,90,0.00,,,0.00,Wunderground v.1.15,2013-01-27 12:45:00,
2013-01-27 07:50:00,18.9,16.5,30.54,West,278,0.0,4.0,90,0.00,,,0.00,Wunderground v.1.15,2013-01-27 12:50:00,
2013-01-27 07:55:00,18.8,16.4,30.54,West,278,0.0,4.0,90,0.00,,,0.00,Wunderground v.1.15,2013-01-27 12:55:00,
2013-01-27 08:00:00,18.6,16.2,30.54,West,278,0.0,4.0,90,0.00,,,0.00,Wunderground v.1.15,2013-01-27 13:00:00,
2013-01-27 08:05:00,18.5,16.1,30.54,West,278,0.0,4.0,90,0.00,,,0.00,Wunderground v.1.15,2013-01-27 13:05:00,
2013-01-27 08:15:00,18.5,16.3,30.54,West,278,0.0,4.0,91,0.00,,,0.00,Wunderground v.1.15,2013-01-27 13:15:00,
2013-01-27 08:20:00,18.5,16.3,30.54,West,278,0.0,4.0,91,0.00,,,0.00,Wunderground v.1.15,2013-01-27 13:20:00,
2013-01-27 08:25:00,18.6,16.4,30.54,West,278,0.0,4.0,91,0.00,,,0.00,Wunderground v.1.15,2013-01-27 13:25:00,
2013-01-27 08:30:00,18.6,16.4,30.55,West,278,0.0,4.0,91,0.00,,,0.00,Wunderground v.1.15,2013-01-27 13:30:00,
2013-01-27 08:35:00,18.7,16.5,30.55,West,278,0.0,4.0,91,0.00,,,0.00,Wunderground v.1.15,2013-01-27 13:35:00,
2013-01-27 08:45:00,18.9,16.7,30.56,West,278,0.0,4.0,91,0.00,,,0.00,Wunderground v.1.15,2013-01-27 13:45:00,
2013-01-27 08:50:00,18.9,16.7,30.56,West,278,0.0,4.0,91,0.00,,,0.00,Wunderground v.1.15,2013-01-27 13:50:00,
2013-01-27 08:55:00,18.9,16.7,30.56,West,278,0.0,4.0,91,0.00,,,0.00,Wunderground v.1.15,2013-01-27 13:55:00,
2013-01-27 09:00:00,19.0,16.8,30.57,West,278,0.0,4.0,91,0.00,,,0.00,Wunderground v.1.15,2013-01-27 14:00:00,
2013-01-27 09:05:00,19.0,16.8,30.57,West,278,0.0,4.0,91,0.00,,,0.00,Wunderground v.1.15,2013-01-27 14:05:00,
2013-01-27 09:10:00,19.1,16.9,30.57,West,278,0.0,4.0,91,0.00,,,0.00,Wunderground v.1.15,2013-01-27 14:10:00,
2013-01-27 09:15:00,19.2,17.0,30.56,West,278,0.0,4.0,91,0.00,,,0.00,Wunderground v.1.15,2013-01-27 14:15:00,
2013-01-27 09:25:00,19.8,17.3,30.56,West,278,0.0,4.0,90,0.00,,,0.00,Wunderground v.1.15,2013-01-27 14:25:00,
2013-01-27 09:30:00,20.0,17.5,30.56,West,278,0.0,4.0,90,0.00,,,0.00,Wunderground v.1.15,2013-01-27 14:30:00,
2013-01-27 09:35:00,20.0,17.3,30.56,West,278,0.0,4.0,89,0.00,,,0.00,Wunderground v.1.15,2013-01-27 14:35:00,
2013-01-27 09:40:00,20.4,17.7,30.56,West,278,0.0,4.0,89,0.00,,,0.00,Wunderground v.1.15,2013-01-27 14:40:00,
2013-01-27 09:45:00,20.9,17.9,30.56,West,278,0.0,4.0,88,0.00,,,0.00,Wunderground v.1.15,2013-01-27 14:45:00,
2013-01-27 09:50:00,21.3,18.0,30.56,West,271,1.0,1.0,87,0.00,,,0.00,Wunderground v.1.15,2013-01-27 14:50:00,
2013-01-27 10:00:00,22.0,18.5,30.56,West,271,0.0,4.0,86,0.00,,,0.00,Wunderground v.1.15,2013-01-27 15:00:00,
2013-01-27 10:05:00,22.4,18.3,30.56,West,271,0.0,4.0,84,0.00,,,0.00,Wunderground v.1.15,2013-01-27 15:05:00,
2013-01-27 10:10:00,22.5,17.8,30.57,West,271,0.0,4.0,82,0.00,,,0.00,Wunderground v.1.15,2013-01-27 15:10:00,
2013-01-27 10:15:00,22.9,17.9,30.57,West,271,0.0,4.0,81,0.00,,,0.00,Wunderground v.1.15,2013-01-27 15:15:00,
2013-01-27 10:20:00,23.1,18.1,30.57,West,271,0.0,4.0,81,0.00,,,0.00,Wunderground v.1.15,2013-01-27 15:20:00,
2013-01-27 10:25:00,23.5,18.2,30.57,West,271,0.0,4.0,80,0.00,,,0.00,Wunderground v.1.15,2013-01-27 15:25:00,
2013-01-27 10:30:00,23.8,18.2,30.57,West,271,0.0,4.0,79,0.00,,,0.00,Wunderground v.1.15,2013-01-27 15:30:00,
2013-01-27 10:40:00,22.4,16.9,30.58,West,273,0.0,4.0,79,0.00,,,0.00,Wunderground v.1.15,2013-01-27 15:40:00,
2013-01-27 10:45:00,22.2,16.7,30.58,WSW,242,1.0,4.0,79,0.00,,,0.00,Wunderground v.1.15,2013-01-27 15:45:00,
2013-01-27 10:50:00,22.3,16.8,30.59,NW,314,0.0,4.0,79,0.00,,,0.00,Wunderground v.1.15,2013-01-27 15:50:00,
2013-01-27 10:55:00,22.1,16.6,30.59,NW,314,0.0,4.0,79,0.00,,,0.00,Wunderground v.1.15,2013-01-27 15:55:00,
2013-01-27 11:00:00,22.0,16.5,30.59,NW,314,0.0,4.0,79,0.00,,,0.00,Wunderground v.1.15,2013-01-27 16:00:00,
2013-01-27 11:05:00,22.1,16.6,30.58,West,273,1.0,4.0,79,0.00,,,0.00,Wunderground v.1.15,2013-01-27 16:05:00,
2013-01-27 11:10:00,22.5,17.0,30.58,West,277,1.0,4.0,79,0.00,,,0.00,Wunderground v.1.15,2013-01-27 16:10:00,
2013-01-27 11:20:00,22.5,17.0,30.57,WSW,252,0.0,4.0,79,0.00,,,0.00,Wunderground v.1.15,2013-01-27 16:20:00,
2013-01-27 11:25:00,22.9,17.1,30.57,WSW,252,0.0,4.0,78,0.00,,,0.00,Wunderground v.1.15,2013-01-27 16:25:00,
2013-01-27 11:30:00,23.6,17.7,30.56,WSW,252,0.0,4.0,78,0.00,,,0.00,Wunderground v.1.15,2013-01-27 16:30:00,
2013-01-27 11:35:00,25.1,18.9,30.56,ESE,117,0.0,4.0,77,0.00,,,0.00,Wunderground v.1.15,2013-01-27 16:35:00,
2013-01-27 11:40:00,26.6,20.1,30.56,East,96,1.0,4.0,76,0.00,,,0.00,Wunderground v.1.15,2013-01-27 16:40:00,
2013-01-27 11:45:00,28.1,20.2,30.55,East,96,1.0,4.0,72,0.00,,,0.00,Wunderground v.1.15,2013-01-27 16:45:00,
2013-01-27 11:55:00,29.7,20.4,30.55,ESE,106,1.0,4.0,68,0.00,,,0.00,Wunderground v.1.15,2013-01-27 16:55:00,
2013-01-27 12:00:00,29.8,19.5,30.55,East,95,1.0,1.0,65,0.00,,,0.00,Wunderground v.1.15,2013-01-27 17:00:00,
2013-01-27 12:05:00,29.7,18.6,30.55,West,261,0.0,2.0,63,0.00,,,0.00,Wunderground v.1.15,2013-01-27 17:05:00,
2013-01-27 12:10:00,28.5,18.2,30.54,West,261,0.0,4.0,65,0.00,,,0.00,Wunderground v.1.15,2013-01-27 17:10:00,
2013-01-27 12:15:00,28.7,18.8,30.53,SE,138,1.0,4.0,66,0.00,,,0.00,Wunderground v.1.15,2013-01-27 17:15:00,
2013-01-27 12:20:00,28.8,18.5,30.53,ESE,123,1.0,1.0,65,0.00,,,0.00,Wunderground v.1.15,2013-01-27 17:20:00,
2013-01-27 12:25:00,28.7,18.1,30.53,SE,141,1.0,4.0,64,0.00,,,0.01,Wunderground v.1.15,2013-01-27 17:25:00,
2013-01-27 12:35:00,28.2,17.2,30.52,WSW,244,0.0,4.0,63,0.00,,,0.01,Wunderground v.1.15,2013-01-27 17:35:00,
2013-01-27 12:40:00,28.1,17.5,30.52,SSW,206,0.0,4.0,64,0.00,,,0.01,Wunderground v.1.15,2013-01-27 17:40:00,
2013-01-27 12:45:00,27.8,16.5,30.53,SW,219,1.0,4.0,62,0.00,,,0.01,Wunderground v.1.15,2013-01-27 17:45:00,
2013-01-27 12:50:00,27.1,16.9,30.53,SW,215,1.0,4.0,65,0.00,,,0.01,Wunderground v.1.15,2013-01-27 17:50:00,
2013-01-27 12:55:00,26.0,16.2,30.53,South,177,1.0,4.0,66,0.00,,,0.01,Wunderground v.1.15,2013-01-27 17:55:00,
2013-01-27 13:00:00,25.8,16.7,30.52,West,267,1.0,1.0,68,0.00,,,0.01,Wunderground v.1.15,2013-01-27 18:00:00,
2013-01-27 13:05:00,25.3,16.2,30.52,West,264,1.0,4.0,68,0.00,,,0.01,Wunderground v.1.15,2013-01-27 18:05:00,
2013-01-27 13:15:00,24.5,15.8,30.52,West,269,3.0,4.0,69,0.00,,,0.01,Wunderground v.1.15,2013-01-27 18:15:00,
2013-01-27 13:20:00,24.7,15.3,30.52,WSW,257,3.0,3.0,67,0.00,,,0.01,Wunderground v.1.15,2013-01-27 18:20:00,
2013-01-27 13:25:00,25.1,16.0,30.52,WSW,252,2.0,4.0,68,0.00,,,0.01,Wunderground v.1.15,2013-01-27 18:25:00,
2013-01-27 13:30:00,25.4,16.3,30.52,West,263,2.0,4.0,68,0.00,,,0.01,Wunderground v.1.15,2013-01-27 18:30:00,
2013-01-27 13:35:00,25.3,16.2,30.52,SW,216,2.0,4.0,68,0.00,,,0.01,Wunderground v.1.15,2013-01-27 18:35:00,
2013-01-27 13:40:00,25.8,16.3,30.52,West,263,3.0,3.0,67,0.00,,,0.01,Wunderground v.1.15,2013-01-27 18:40:00,
2013-01-27 13:50:00,25.8,16.0,30.52,West,264,1.0,1.0,66,0.00,,,0.01,Wunderground v.1.15,2013-01-27 18:50:00,
2013-01-27 14:00:00,26.4,16.6,30.51,SSW,200,1.0,4.0,66,0.00,,,0.01,Wunderground v.1.15,2013-01-27 19:00:00,
2013-01-27 14:05:00,26.5,16.7,30.51,West,259,2.0,5.0,66,0.00,,,0.01,Wunderground v.1.15,2013-01-27 19:05:00,
2013-01-27 14:10:00,26.6,16.4,30.51,WSW,239,3.0,3.0,65,0.00,,,0.01,Wunderground v.1.15,2013-01-27 19:10:00,
2013-01-27 14:15:00,26.9,16.3,30.51,WSW,253,2.0,4.0,64,0.00,,,0.01,Wunderground v.1.15,2013-01-27 19:15:00,
2013-01-27 14:20:00,27.2,16.3,30.51,West,273,1.0,4.0,63,0.00,,,0.01,Wunderground v.1.15,2013-01-27 19:20:00,
2013-01-27 14:25:00,26.9,16.0,30.52,West,264,1.0,4.0,63,0.00,,,0.01,Wunderground v.1.15,2013-01-27 19:25:00,
2013-01-27 14:35:00,26.7,16.5,30.52,WNW,296,1.0,4.0,65,0.00,,,0.01,Wunderground v.1.15,2013-01-27 19:35:00,
2013-01-27 14:40:00,27.0,17.8,30.52,WNW,298,0.0,4.0,68,0.00,,,0.02,Wunderground v.1.15,2013-01-27 19:40:00,
2013-01-27 14:45:00,27.8,17.9,30.52,WNW,298,0.0,4.0,66,0.00,,,0.02,Wunderground v.1.15,2013-01-27 19:45:00,
2013-01-27 14:50:00,27.5,16.9,30.52,WNW,298,0.0,4.0,64,0.00,,,0.02,Wunderground v.1.15,2013-01-27 19:50:00,
2013-01-27 14:55:00,27.1,16.5,30.53,WSW,248,1.0,4.0,64,0.00,,,0.02,Wunderground v.1.15,2013-01-27 19:55:00,
2013-01-27 15:00:00,27.1,16.9,30.53,WSW,254,3.0,3.0,65,0.00,,,0.02,Wunderground v.1.15,2013-01-27 20:00:00,
2013-01-27 15:05:00,27.0,16.4,30.52,West,259,2.0,4.0,64,0.00,,,0.02,Wunderground v.1.15,2013-01-27 20:05:00,
2013-01-27 15:15:00,26.9,16.3,30.53,West,266,2.0,4.0,64,0.00,,,0.02,Wunderground v.1.15,2013-01-27 20:15:00,
2013-01-27 15:20:00,27.2,17.0,30.52,West,266,1.0,1.0,65,0.00,,,0.02,Wunderground v.1.15,2013-01-27 20:20:00,
2013-01-27 15:25:00,27.9,17.3,30.52,West,266,0.0,4.0,64,0.00,,,0.02,Wunderground v.1.15,2013-01-27 20:25:00,
2013-01-27 15:30:00,28.1,17.5,30.52,NNE,22,0.0,4.0,64,0.00,,,0.02,Wunderground v.1.15,2013-01-27 20:30:00,
2013-01-27 15:35:00,28.7,19.1,30.51,ENE,77,0.0,4.0,67,0.00,,,0.02,Wunderground v.1.15,2013-01-27 20:35:00,
2013-01-27 15:40:00,29.3,19.0,30.51,ENE,77,0.0,4.0,65,0.00,,,0.02,Wunderground v.1.15,2013-01-27 20:40:00,
2013-01-27 15:50:00,29.1,16.9,30.51,ENE,77,0.0,4.0,60,0.00,,,0.02,Wunderground v.1.15,2013-01-27 20:50:00,
2013-01-27 15:55:00,28.3,16.2,30.51,SW,214,1.0,4.0,60,0.00,,,0.02,Wunderground v.1.15,2013-01-27 20:55:00,
2013-01-27 16:00:00,27.6,15.1,30.51,West,279,1.0,1.0,59,0.00,,,0.02,Wunderground v.1.15,2013-01-27 21:00:00,
2013-01-27 16:05:00,27.0,14.9,30.51,WSW,253,1.0,3.0,60,0.00,,,0.02,Wunderground v.1.15,2013-01-27 21:05:00,
2013-01-27 16:10:00,26.9,15.2,30.51,WSW,253,2.0,4.0,61,0.00,,,0.02,Wunderground v.1.15,2013-01-27 21:10:00,
2013-01-27 16:15:00,27.0,15.7,30.51,WSW,237,2.0,4.0,62,0.00,,,0.02,Wunderground v.1.15,2013-01-27 21:15:00,
2013-01-27 16:20:00,27.0,15.3,30.51,WSW,237,0.0,4.0,61,0.00,,,0.02,Wunderground v.1.15,2013-01-27 21:20:00,
2013-01-27 16:30:00,26.8,14.8,30.50,West,270,1.0,4.0,60,0.00,,,0.02,Wunderground v.1.15,2013-01-27 21:30:00,
2013-01-27 16:35:00,26.7,15.0,30.50,West,267,1.0,4.0,61,0.00,,,0.02,Wunderground v.1.15,2013-01-27 21:35:00,
2013-01-27 16:40:00,26.7,15.4,30.50,SW,229,1.0,4.0,62,0.00,,,0.02,Wunderground v.1.15,2013-01-27 21:40:00,
2013-01-27 16:45:00,26.7,15.4,30.50,West,267,2.0,4.0,62,0.00,,,0.02,Wunderground v.1.15,2013-01-27 21:45:00,
2013-01-27 16:50:00,26.7,15.4,30.51,WSW,257,0.0,4.0,62,0.00,,,0.02,Wunderground v.1.15,2013-01-27 21:50:00,
2013-01-27 16:55:00,26.6,15.3,30.50,WSW,257,1.0,4.0,62,0.00,,,0.02,Wunderground v.1.15,2013-01-27 21:55:00,
2013-01-27 17:05:00,26.4,15.5,30.49,WSW,255,0.0,4.0,63,0.00,,,0.02,Wunderground v.1.15,2013-01-27 22:05:00,
2013-01-27 17:10:00,26.0,15.1,30.49,SSE,153,0.0,4.0,63,0.00,,,0.02,Wunderground v.1.15,2013-01-27 22:10:00,
2013-01-27 17:15:00,25.4,15.6,30.48,ESE,123,0.0,4.0,66,0.00,,,0.02,Wunderground v.1.15,2013-01-27 22:15:00,
2013-01-27 17:20:00,24.9,15.5,30.48,SE,142,1.0,1.0,67,0.00,,,0.02,Wunderground v.1.15,2013-01-27 22:20:00,
2013-01-27 17:25:00,24.6,15.2,30.48,SE,136,1.0,4.0,67,0.00,,,0.02,Wunderground v.1.15,2013-01-27 22:25:00,
2013-01-27 17:30:00,24.5,15.4,30.48,SSE,147,1.0,4.0,68,0.00,,,0.02,Wunderground v.1.15,2013-01-27 22:30:00,
2013-01-27 17:40:00,24.1,15.4,30.48,SE,146,1.0,1.0,69,0.00,,,0.02,Wunderground v.1.15,2013-01-27 22:40:00,
2013-01-27 17:45:00,23.9,15.2,30.48,SSE,147,1.0,4.0,69,0.00,,,0.02,Wunderground v.1.15,2013-01-27 22:45:00,
2013-01-27 17:50:00,23.6,15.2,30.48,SSE,150,1.0,1.0,70,0.00,,,0.02,Wunderground v.1.15,2013-01-27 22:50:00,
2013-01-27 17:55:00,23.5,15.1,30.48,SE,126,1.0,4.0,70,0.00,,,0.02,Wunderground v.1.15,2013-01-27 22:55:00,
2013-01-27 18:00:00,23.3,15.3,30.48,SE,140,1.0,1.0,71,0.00,,,0.02,Wunderground v.1.15,2013-01-27 23:00:00,
2013-01-27 18:05:00,23.0,15.3,30.47,SE,128,1.0,2.0,72,0.00,,,0.02,Wunderground v.1.15,2013-01-27 23:05:00,
2013-01-27 18:10:00,22.8,15.1,30.47,SE,127,2.0,2.0,72,0.00,,,0.02,Wunderground v.1.15,2013-01-27 23:10:00,
2013-01-27 18:20:00,22.5,15.1,30.47,SSE,151,1.0,1.0,73,0.00,,,0.02,Wunderground v.1.15,2013-01-27 23:20:00,
2013-01-27 18:25:00,22.4,15.4,30.47,SSE,150,2.0,2.0,74,0.00,,,0.02,Wunderground v.1.15,2013-01-27 23:25:00,
2013-01-27 18:30:00,22.3,15.3,30.46,SSE,153,2.0,4.0,74,0.00,,,0.02,Wunderground v.1.15,2013-01-27 23:30:00,
2013-01-27 18:35:00,22.2,15.2,30.46,SE,138,2.0,4.0,74,0.00,,,0.02,Wunderground v.1.15,2013-01-27 23:35:00,
2013-01-27 18:40:00,22.2,15.2,30.46,SE,131,3.0,4.0,74,0.00,,,0.02,Wunderground v.1.15,2013-01-27 23:40:00,
2013-01-27 18:45:00,22.3,15.3,30.46,SE,136,4.0,6.0,74,0.00,,,0.02,Wunderground v.1.15,2013-01-27 23:45:00,
2013-01-27 18:50:00,22.3,15.3,30.45,SSE,152,4.0,4.0,74,0.00,,,0.02,Wunderground v.1.15,2013-01-27 23:50:00,
2013-01-27 19:00:00,22.4,15.1,30.45,SE,133,3.0,3.0,73,0.00,,,0.02,Wunderground v.1.15,2013-01-28 00:00:00,
2013-01-27 19:05:00,22.4,15.4,30.45,SE,143,3.0,4.0,74,0.00,,,0.02,Wunderground v.1.15,2013-01-28 00:05:00,
2013-01-27 19:10:00,22.3,15.0,30.46,SE,134,2.0,4.0,73,0.00,,,0.02,Wunderground v.1.15,2013-01-28 00:10:00,
2013-01-27 19:15:00,22.2,15.2,30.46,SE,134,1.0,4.0,74,0.00,,,0.02,Wunderground v.1.15,2013-01-28 00:15:00,
2013-01-27 19:20:00,22.1,15.1,30.46,SE,141,2.0,4.0,74,0.00,,,0.02,Wunderground v.1.15,2013-01-28 00:20:00,
2013-01-27 19:25:00,22.0,15.0,30.46,SE,145,2.0,4.0,74,0.00,,,0.02,Wunderground v.1.15,2013-01-28 00:25:00,
2013-01-27 19:35:00,21.8,14.8,30.47,SE,140,2.0,4.0,74,0.00,,,0.02,Wunderground v.1.15,2013-01-28 00:35:00,
2013-01-27 19:40:00,21.9,14.9,30.47,SE,140,2.0,4.0,74,0.00,,,0.02,Wunderground v.1.15,2013-01-28 00:40:00,
2013-01-27 19:45:00,21.9,14.9,30.46,SE,134,2.0,4.0,74,0.00,,,0.02,Wunderground v.1.15,2013-01-28 00:45:00,
2013-01-27 19:50:00,21.9,14.6,30.46,SE,135,2.0,4.0,73,0.00,,,0.02,Wunderground v.1.15,2013-01-28 00:50:00,
2013-01-27 19:55:00,21.9,14.6,30.45,SE,136,2.0,4.0,73,0.00,,,0.02,Wunderground v.1.15,2013-01-28 00:55:00,
2013-01-27 20:05:00,22.2,14.5,30.45,SE,131,1.0,4.0,72,0.00,,,0.02,Wunderground v.1.15,2013-01-28 01:05:00,
2013-01-27 20:10:00,22.1,14.4,30.45,SE,143,1.0,4.0,72,0.00,,,0.02,Wunderground v.1.15,2013-01-28 01:10:00,
2013-01-27 20:15:00,21.8,14.5,30.45,SE,135,1.0,4.0,73,0.00,,,0.02,Wunderground v.1.15,2013-01-28 01:15:00,
2013-01-27 20:20:00,21.7,14.4,30.45,SE,143,0.0,4.0,73,0.00,,,0.02,Wunderground v.1.15,2013-01-28 01:20:00,
2013-01-27 20:25:00,21.6,14.3,30.44,SE,145,0.0,4.0,73,0.00,,,0.02,Wunderground v.1.15,2013-01-28 01:25:00,
2013-01-27 20:30:00,21.5,14.2,30.43,ESE,122,0.0,4.0,73,0.00,,,0.02,Wunderground v.1.15,2013-01-28 01:30:00,
2013-01-27 20:40:00,21.4,14.1,30.43,SE,130,0.0,4.0,73,0.00,,,0.02,Wunderground v.1.15,2013-01-28 01:40:00,
2013-01-27 20:45:00,21.2,13.9,30.43,SE,130,0.0,4.0,73,0.00,,,0.02,Wunderground v.1.15,2013-01-28 01:45:00,
2013-01-27 20:50:00,20.9,13.9,30.43,SE,130,0.0,4.0,74,0.00,,,0.02,Wunderground v.1.15,2013-01-28 01:50:00,
2013-01-27 20:55:00,20.7,13.7,30.42,SE,131,0.0,4.0,74,0.00,,,0.02,Wunderground v.1.15,2013-01-28 01:55:00,
2013-01-27 21:00:00,20.5,13.5,30.42,SE,131,0.0,4.0,74,0.00,,,0.02,Wunderground v.1.15,2013-01-28 02:00:00,
2013-01-27 21:10:00,19.8,13.2,30.42,SE,131,0.0,4.0,75,0.00,,,0.02,Wunderground v.1.15,2013-01-28 02:10:00,
2013-01-27 21:15:00,19.6,13.3,30.42,SE,131,0.0,4.0,76,0.00,,,0.02,Wunderground v.1.15,2013-01-28 02:15:00,
2013-01-27 21:20:00,19.6,13.3,30.42,SE,131,0.0,4.0,76,0.00,,,0.02,Wunderground v.1.15,2013-01-28 02:20:00,
2013-01-27 21:25:00,19.5,13.2,30.41,SE,131,0.0,4.0,76,0.00,,,0.02,Wunderground v.1.15,2013-01-28 02:25:00,
2013-01-27 21:30:00,19.6,13.6,30.41,SE,131,0.0,4.0,77,0.00,,,0.02,Wunderground v.1.15,2013-01-28 02:30:00,
2013-01-27 21:35:00,19.6,13.6,30.41,SE,131,0.0,4.0,77,0.00,,,0.02,Wunderground v.1.15,2013-01-28 02:35:00,
2013-01-27 21:45:00,19.5,13.5,30.41,SE,131,0.0,4.0,77,0.00,,,0.02,Wunderground v.1.15,2013-01-28 02:45:00,
2013-01-27 21:50:00,19.8,13.8,30.42,SE,131,0.0,4.0,77,0.00,,,0.02,Wunderground v.1.15,2013-01-28 02:50:00,
2013-01-27 21:55:00,19.8,14.3,30.41,SE,131,0.0,4.0,79,0.00,,,0.02,Wunderground v.1.15,2013-01-28 02:55:00,
2013-01-27 22:00:00,19.7,14.2,30.41,SE,131,0.0,4.0,79,0.00,,,0.02,Wunderground v.1.15,2013-01-28 03:00:00,
2013-01-27 22:05:00,19.5,14.0,30.41,SE,131,0.0,4.0,79,0.00,,,0.02,Wunderground v.1.15,2013-01-28 03:05:00,
2013-01-27 22:10:00,19.4,13.7,30.41,SE,131,0.0,4.0,78,0.00,,,0.02,Wunderground v.1.15,2013-01-28 03:10:00,
2013-01-27 22:20:00,19.7,14.2,30.41,SE,131,0.0,4.0,79,0.00,,,0.02,Wunderground v.1.15,2013-01-28 03:20:00,
2013-01-27 22:25:00,19.9,14.4,30.40,SE,131,0.0,4.0,79,0.00,,,0.02,Wunderground v.1.15,2013-01-28 03:25:00,
2013-01-27 22:30:00,20.2,14.7,30.40,SE,131,0.0,4.0,79,0.00,,,0.02,Wunderground v.1.15,2013-01-28 03:30:00,
2013-01-27 22:35:00,20.3,15.1,30.40,SE,131,0.0,4.0,80,0.00,,,0.02,Wunderground v.1.15,2013-01-28 03:35:00,
2013-01-27 22:40:00,20.3,15.1,30.40,SE,131,0.0,4.0,80,0.00,,,0.02,Wunderground v.1.15,2013-01-28 03:40:00,
2013-01-27 22:45:00,20.4,15.5,30.40,SE,131,0.0,4.0,81,0.00,,,0.02,Wunderground v.1.15,2013-01-28 03:45:00,
2013-01-27 22:55:00,20.0,15.1,30.41,ESE,122,0.0,4.0,81,0.00,,,0.02,Wunderground v.1.15,2013-01-28 03:55:00,
2013-01-27 23:00:00,19.9,15.3,30.41,ESE,122,0.0,4.0,82,0.00,,,0.02,Wunderground v.1.15,2013-01-28 04:00:00,
2013-01-27 23:05:00,19.8,15.5,30.40,ESE,122,0.0,4.0,83,0.00,,,0.02,Wunderground v.1.15,2013-01-28 04:05:00,
2013-01-27 23:10:00,19.9,15.6,30.40,ESE,122,0.0,4.0,83,0.00,,,0.02,Wunderground v.1.15,2013-01-28 04:10:00,
2013-01-27 23:15:00,20.0,15.7,30.40,ESE,122,0.0,4.0,83,0.00,,,0.02,Wunderground v.1.15,2013-01-28 04:15:00,
2013-01-27 23:20:00,20.2,16.1,30.39,ESE,122,0.0,4.0,84,0.00,,,0.02,Wunderground v.1.15,2013-01-28 04:20:00,
2013-01-27 23:25:00,20.3,16.2,30.39,ESE,122,0.0,4.0,84,0.00,,,0.02,Wunderground v.1.15,2013-01-28 04:25:00,
2013-01-27 23:35:00,20.4,16.3,30.39,ESE,122,0.0,4.0,84,0.00,,,0.02,Wunderground v.1.15,2013-01-28 04:35:00,
2013-01-27 23:40:00,20.4,16.6,30.39,ESE,122,0.0,4.0,85,0.00,,,0.02,Wunderground v.1.15,2013-01-28 04:40:00,
2013-01-27 23:45:00,20.4,16.9,30.39,ESE,122,0.0,4.0,86,0.00,,,0.02,Wunderground v.1.15,2013-01-28 04:45:00,
2013-01-27 23:50:00,20.4,16.6,30.38,ESE,122,0.0,4.0,85,0.00,,,0.02,Wunderground v.1.15,2013-01-28 04:50:00,
2013-01-27 23:55:00,20.5,16.7,30.38,ESE,122,0.0,4.0,85,0.00,,,0.02,Wunderground v.1.15,2013-01-28 04:55:00,